createdAt,value
2018-12-13T00:00:20.921Z,21.20
2018-12-13T00:02:46.841Z,19.10
2018-12-13T00:05:12.763Z,20.83
2018-12-13T00:07:38.698Z,18.37
2018-12-13T00:10:04.660Z,18.63
2018-12-13T00:12:30.564Z,19.83
2018-12-13T00:14:56.503Z,18.70
2018-12-13T00:17:22.405Z,18.00
2018-12-13T00:19:48.291Z,19.20
2018-12-13T00:22:14.215Z,19.03
2018-12-13T00:24:40.118Z,20.83
2018-12-13T00:27:06.035Z,20.07
2018-12-13T00:29:31.942Z,20.20
2018-12-13T00:31:57.888Z,18.40
2018-12-13T00:34:23.787Z,19.07
2018-12-13T00:36:49.731Z,20.23
2018-12-13T00:39:15.626Z,20.77
2018-12-13T00:41:41.505Z,19.73
2018-12-13T00:44:07.441Z,22.13
2018-12-13T00:46:33.339Z,19.23
2018-12-13T00:48:59.308Z,18.03
2018-12-13T00:51:25.210Z,23.80
2018-12-13T00:53:51.221Z,19.77
2018-12-13T00:56:17.179Z,22.40
2018-12-13T00:58:43.192Z,19.93
2018-12-13T01:01:09.192Z,22.13
2018-12-13T01:03:35.210Z,19.63
2018-12-13T01:06:01.269Z,21.70
2018-12-13T01:08:27.150Z,19.87
2018-12-13T01:10:53.076Z,20.63
2018-12-13T01:13:18.978Z,23.40
2018-12-13T01:15:44.902Z,20.37
2018-12-13T01:18:10.825Z,25.40
2018-12-13T01:20:36.769Z,22.87
2018-12-13T01:23:02.671Z,21.70
2018-12-13T01:25:28.605Z,21.13
2018-12-13T01:27:54.589Z,22.47
2018-12-13T01:30:20.471Z,24.50
2018-12-13T01:32:46.395Z,23.00
2018-12-13T01:35:12.307Z,21.17
2018-12-13T01:37:38.236Z,21.40
2018-12-13T01:40:04.227Z,19.67
2018-12-13T01:42:30.174Z,22.30
2018-12-13T01:44:56.058Z,24.47
2018-12-13T01:47:21.952Z,20.23
2018-12-13T01:49:47.918Z,22.47
2018-12-13T01:52:13.800Z,21.30
2018-12-13T01:54:39.721Z,23.17
2018-12-13T01:57:05.645Z,24.07
2018-12-13T01:59:31.560Z,21.60
2018-12-13T02:01:57.458Z,19.80
2018-12-13T02:04:23.352Z,23.33
2018-12-13T02:06:49.288Z,22.70
2018-12-13T02:09:15.186Z,22.77
2018-12-13T02:11:41.108Z,20.40
2018-12-13T02:14:07.006Z,21.70
2018-12-13T02:16:32.940Z,21.57
2018-12-13T02:18:58.876Z,21.00
2018-12-13T02:21:24.879Z,23.00
2018-12-13T02:23:50.783Z,19.50
2018-12-13T02:26:16.686Z,20.50
2018-12-13T02:28:42.694Z,18.57
2018-12-13T02:31:08.572Z,19.20
2018-12-13T02:33:34.514Z,18.30
2018-12-13T02:36:00.415Z,18.43
2018-12-13T02:38:26.512Z,22.70
2018-12-13T02:40:52.403Z,21.83
2018-12-13T02:43:18.331Z,21.23
2018-12-13T02:45:44.285Z,19.90
2018-12-13T02:48:10.210Z,24.90
2018-12-13T02:50:36.135Z,23.60
2018-12-13T02:53:02.068Z,21.33
2018-12-13T02:55:27.977Z,22.70
2018-12-13T02:57:53.904Z,22.10
2018-12-13T03:00:19.805Z,21.17
2018-12-13T03:02:46.653Z,20.40
2018-12-13T03:05:12.563Z,21.77
2018-12-13T03:07:38.545Z,24.70
2018-12-13T03:10:04.431Z,24.03
2018-12-13T03:12:30.371Z,23.87
2018-12-13T03:14:56.265Z,23.67
2018-12-13T03:17:22.165Z,23.10
2018-12-13T03:19:48.088Z,25.90
2018-12-13T03:22:13.993Z,25.03
2018-12-13T03:24:39.920Z,26.47
2018-12-13T03:27:05.904Z,26.07
2018-12-13T03:29:31.892Z,26.13
2018-12-13T03:31:57.793Z,24.27
2018-12-13T03:34:23.735Z,29.23
2018-12-13T03:36:49.637Z,28.30
2018-12-13T03:39:15.577Z,27.73
2018-12-13T03:41:41.619Z,27.27
2018-12-13T03:44:07.555Z,26.70
2018-12-13T03:46:33.491Z,25.50
2018-12-13T03:48:59.415Z,25.37
2018-12-13T03:51:25.353Z,26.30
2018-12-13T03:53:51.270Z,25.00
2018-12-13T03:56:17.362Z,25.23
2018-12-13T03:58:43.248Z,24.13
2018-12-13T04:01:09.191Z,25.20
2018-12-13T04:03:35.085Z,24.23
2018-12-13T04:06:00.975Z,22.07
2018-12-13T04:08:26.884Z,22.73
2018-12-13T04:10:52.797Z,21.03
2018-12-13T04:13:18.728Z,19.80
2018-12-13T04:15:44.650Z,21.43
2018-12-13T04:18:10.740Z,21.40
2018-12-13T04:20:36.707Z,19.70
2018-12-13T04:23:02.634Z,19.10
2018-12-13T04:25:28.542Z,20.57
2018-12-13T04:27:54.522Z,21.10
2018-12-13T04:30:20.456Z,17.87
2018-12-13T04:32:46.376Z,19.23
2018-12-13T04:35:12.310Z,17.90
2018-12-13T04:37:38.203Z,17.83
2018-12-13T04:40:04.091Z,17.80
2018-12-13T04:42:29.999Z,17.77
2018-12-13T04:44:55.873Z,18.17
2018-12-13T04:47:21.803Z,17.23
2018-12-13T04:49:48.627Z,16.23
2018-12-13T04:52:14.580Z,16.43
2018-12-13T04:54:40.485Z,16.73
2018-12-13T04:57:06.456Z,15.73
2018-12-13T04:59:32.341Z,13.83
2018-12-13T05:01:58.316Z,14.20
2018-12-13T05:04:24.283Z,16.33
2018-12-13T05:06:50.178Z,14.13
2018-12-13T05:09:16.124Z,13.50
2018-12-13T05:11:42.042Z,14.43
2018-12-13T05:14:07.973Z,13.10
2018-12-13T05:16:33.918Z,13.33
2018-12-13T05:18:59.849Z,12.90
2018-12-13T05:21:25.760Z,13.80
2018-12-13T05:23:51.674Z,14.23
2018-12-13T05:26:17.616Z,13.50
2018-12-13T05:28:43.519Z,13.83
2018-12-13T05:31:09.630Z,14.03
2018-12-13T05:33:35.679Z,15.33
2018-12-13T05:36:01.700Z,17.13
2018-12-13T05:38:27.629Z,15.40
2018-12-13T05:40:53.524Z,16.17
2018-12-13T05:43:19.448Z,18.50
2018-12-13T05:45:45.420Z,19.40
2018-12-13T05:48:11.342Z,18.20
2018-12-13T05:50:37.443Z,18.10
2018-12-13T05:53:03.359Z,17.63
2018-12-13T05:55:29.383Z,16.93
2018-12-13T05:57:55.341Z,17.07
2018-12-13T06:00:21.665Z,17.87
2018-12-13T06:02:47.554Z,16.83
2018-12-13T06:05:13.485Z,16.37
2018-12-13T06:07:39.383Z,16.13
2018-12-13T06:10:05.317Z,17.50
2018-12-13T06:12:31.213Z,16.50
2018-12-13T06:14:57.131Z,15.17
2018-12-13T06:17:23.045Z,16.10
2018-12-13T06:19:48.983Z,15.23
2018-12-13T06:22:14.879Z,13.70
2018-12-13T06:24:40.820Z,13.07
2018-12-13T06:27:06.712Z,12.90
2018-12-13T06:29:32.631Z,15.17
2018-12-13T06:31:58.528Z,16.00
2018-12-13T06:34:24.468Z,13.33
2018-12-13T06:36:50.358Z,15.30
2018-12-13T06:39:16.304Z,13.20
2018-12-13T06:41:42.194Z,14.43
2018-12-13T06:44:08.116Z,14.33
2018-12-13T06:46:34.030Z,16.53
2018-12-13T06:48:59.944Z,13.93
2018-12-13T06:51:25.871Z,12.60
2018-12-13T06:53:51.842Z,11.70
2018-12-13T06:56:17.865Z,13.13
2018-12-13T06:58:43.743Z,11.13
2018-12-13T07:01:09.684Z,13.40
2018-12-13T07:03:35.592Z,12.57
2018-12-13T07:06:01.536Z,11.33
2018-12-13T07:08:27.551Z,11.50
2018-12-13T07:10:53.488Z,11.10
2018-12-13T07:13:19.434Z,10.80
2018-12-13T07:15:45.393Z,12.07
2018-12-13T07:18:11.329Z,10.90
2018-12-13T07:20:37.266Z,10.57
2018-12-13T07:23:03.193Z,11.00
2018-12-13T07:25:29.129Z,11.17
2018-12-13T07:27:55.066Z,11.47
2018-12-13T07:30:21.148Z,11.43
2018-12-13T07:32:47.033Z,11.10
2018-12-13T07:35:12.975Z,10.60
2018-12-13T07:37:38.872Z,11.27
2018-12-13T07:40:06.338Z,10.77
2018-12-13T07:42:32.231Z,11.83
2018-12-13T07:44:58.160Z,11.60
2018-12-13T07:47:24.056Z,11.53
2018-12-13T07:49:49.985Z,12.50
2018-12-13T07:52:15.916Z,12.23
2018-12-13T07:54:41.863Z,13.17
2018-12-13T07:57:07.777Z,12.87
2018-12-13T07:59:33.677Z,12.80
2018-12-13T08:01:59.608Z,11.17
2018-12-13T08:04:25.547Z,11.27
2018-12-13T08:06:51.573Z,12.97
2018-12-13T08:09:17.493Z,12.70
2018-12-13T08:11:43.428Z,13.93
2018-12-13T08:14:09.328Z,12.90
2018-12-13T08:16:35.256Z,14.00
2018-12-13T08:19:01.184Z,15.63
2018-12-13T08:21:27.119Z,12.57
2018-12-13T08:23:53.049Z,14.57
2018-12-13T08:26:19.075Z,11.93
2018-12-13T08:28:44.975Z,12.53
2018-12-13T08:31:10.917Z,13.13
2018-12-13T08:33:36.853Z,11.73
2018-12-13T08:36:02.778Z,12.77
2018-12-13T08:38:28.723Z,12.93
2018-12-13T08:40:54.651Z,13.00
2018-12-13T08:43:20.574Z,12.37
2018-12-13T08:45:46.512Z,11.97
2018-12-13T08:48:12.415Z,11.07
2018-12-13T08:50:38.373Z,11.57
2018-12-13T08:53:04.290Z,13.37
2018-12-13T08:55:30.284Z,12.27
2018-12-13T08:57:56.277Z,11.60
2018-12-13T09:00:22.426Z,12.77
2018-12-13T09:02:48.381Z,11.13
2018-12-13T09:05:14.276Z,10.63
2018-12-13T09:07:40.188Z,11.27
2018-12-13T09:10:06.095Z,12.17
2018-12-13T09:12:32.084Z,12.03
2018-12-13T09:14:58.029Z,11.53
2018-12-13T09:17:24.019Z,11.77
2018-12-13T09:19:49.911Z,26.10
2018-12-13T09:22:15.847Z,17.57
2018-12-13T09:24:41.837Z,28.87
2018-12-13T09:27:07.763Z,22.27
2018-12-13T09:29:33.683Z,21.30
2018-12-13T09:31:59.593Z,20.30
2018-12-13T09:34:25.490Z,20.00
2018-12-13T09:36:51.384Z,13.93
2018-12-13T09:39:17.318Z,12.87
2018-12-13T09:41:50.172Z,11.70
2018-12-13T09:44:16.531Z,14.00
2018-12-13T09:46:42.869Z,12.23
2018-12-13T09:49:08.791Z,12.77
2018-12-13T09:51:34.730Z,11.30
2018-12-13T09:54:00.677Z,12.20
2018-12-13T09:56:26.677Z,11.90
2018-12-13T09:58:52.797Z,12.20
2018-12-13T10:01:18.713Z,11.67
2018-12-13T10:03:44.622Z,11.83
2018-12-13T10:06:10.540Z,10.90
2018-12-13T10:08:36.505Z,10.43
2018-12-13T10:11:02.409Z,12.67
2018-12-13T10:13:28.301Z,10.80
2018-12-13T10:15:54.264Z,10.20
2018-12-13T10:18:20.173Z,11.97
2018-12-13T10:20:46.126Z,12.07
2018-12-13T10:23:12.022Z,12.20
2018-12-13T10:25:37.916Z,11.90
2018-12-13T10:28:03.850Z,11.37
2018-12-13T10:30:29.762Z,12.80
2018-12-13T10:32:55.697Z,11.37
2018-12-13T10:35:21.638Z,11.20
2018-12-13T10:37:47.586Z,13.00
2018-12-13T10:40:13.501Z,11.93
2018-12-13T10:42:39.457Z,12.77
2018-12-13T10:45:05.365Z,11.63
2018-12-13T10:47:31.290Z,10.70
2018-12-13T10:49:57.196Z,11.87
2018-12-13T10:52:23.131Z,11.93
2018-12-13T10:54:49.075Z,11.77
2018-12-13T10:57:14.984Z,11.90
2018-12-13T10:59:40.946Z,13.63
2018-12-13T11:02:08.886Z,12.33
2018-12-13T11:04:34.813Z,12.30
2018-12-13T11:07:00.723Z,11.53
2018-12-13T11:09:26.648Z,11.70
2018-12-13T11:11:52.566Z,12.60
2018-12-13T11:14:18.506Z,10.63
2018-12-13T11:16:44.433Z,10.03
2018-12-13T11:19:10.424Z,11.77
2018-12-13T11:21:36.348Z,10.37
2018-12-13T11:24:02.267Z,10.37
2018-12-13T11:26:28.190Z,10.87
2018-12-13T11:31:58.344Z,10.37
2018-12-13T11:34:24.220Z,9.67
2018-12-13T11:36:50.169Z,8.87
2018-12-13T11:39:16.070Z,9.13
2018-12-13T11:41:42.017Z,10.07
2018-12-13T11:44:07.913Z,9.03
2018-12-13T11:46:33.821Z,9.60
2018-12-13T11:48:59.811Z,8.97
2018-12-13T11:51:25.761Z,8.53
2018-12-13T11:53:51.711Z,9.20
2018-12-13T11:56:17.601Z,10.33
2018-12-13T11:58:43.541Z,8.63
2018-12-13T12:01:09.477Z,8.40
2018-12-13T12:03:35.437Z,8.87
2018-12-13T12:06:01.352Z,9.50
2018-12-13T12:08:27.427Z,9.77
2018-12-13T12:10:53.365Z,9.23
2018-12-13T12:13:19.296Z,9.17
2018-12-13T12:15:48.812Z,9.13
2018-12-13T12:18:15.040Z,9.33
2018-12-13T12:20:40.946Z,9.40
2018-12-13T12:23:06.884Z,9.20
2018-12-13T12:25:32.805Z,9.80
2018-12-13T12:27:58.772Z,9.90
2018-12-13T12:30:24.676Z,9.07
2018-12-13T12:32:50.601Z,8.20
2018-12-13T12:35:16.532Z,9.57
2018-12-13T12:37:42.457Z,9.60
2018-12-13T12:40:08.474Z,8.40
2018-12-13T12:42:34.381Z,8.77
2018-12-13T12:45:00.304Z,9.13
2018-12-13T12:47:26.197Z,8.83
2018-12-13T12:49:52.165Z,8.77
2018-12-13T12:52:18.093Z,11.23
2018-12-13T12:54:44.003Z,9.50
2018-12-13T12:57:10.011Z,8.30
2018-12-13T12:59:36.001Z,8.33
2018-12-13T13:02:02.063Z,9.10
2018-12-13T13:04:28.030Z,8.40
2018-12-13T13:06:53.969Z,9.57
2018-12-13T13:09:25.002Z,9.60
2018-12-13T13:11:47.916Z,8.93
2018-12-13T13:14:13.824Z,8.33
2018-12-13T13:16:39.728Z,8.80
2018-12-13T13:19:05.659Z,9.10
2018-12-13T13:21:31.554Z,9.40
2018-12-13T13:23:57.483Z,9.90
2018-12-13T13:26:23.412Z,10.03
2018-12-13T13:28:49.323Z,10.10
2018-12-13T13:31:15.240Z,11.13
2018-12-13T13:33:41.133Z,9.90
2018-12-13T13:36:07.412Z,9.30
2018-12-13T13:38:33.306Z,9.00
2018-12-13T13:40:59.257Z,8.83
2018-12-13T13:43:25.164Z,9.13
2018-12-13T13:45:51.109Z,9.77
2018-12-13T13:48:17.053Z,9.03
2018-12-13T13:50:42.947Z,9.40
2018-12-13T13:53:08.960Z,9.80
2018-12-13T13:55:34.851Z,8.63
2018-12-13T13:58:00.798Z,11.07
2018-12-13T14:00:26.699Z,9.00
2018-12-13T14:02:52.637Z,9.60
2018-12-13T14:05:18.543Z,8.67
2018-12-13T14:07:44.476Z,9.60
2018-12-13T14:10:10.386Z,9.87
2018-12-13T14:12:36.319Z,9.47
2018-12-13T14:15:02.594Z,9.60
2018-12-13T14:17:28.551Z,9.97
2018-12-13T14:19:54.484Z,10.07
2018-12-13T14:22:20.424Z,10.27
2018-12-13T14:24:46.368Z,10.13
2018-12-13T14:27:12.732Z,10.07
2018-12-13T14:29:38.657Z,9.57
2018-12-13T14:32:04.602Z,10.87
2018-12-13T14:34:30.497Z,10.73
2018-12-13T14:36:56.425Z,9.40
2018-12-13T14:39:22.370Z,10.93
2018-12-13T14:41:48.325Z,10.83
2018-12-13T14:44:14.239Z,11.27
2018-12-13T14:46:40.157Z,11.23
2018-12-13T14:49:06.136Z,9.53
2018-12-13T14:51:32.062Z,10.57
2018-12-13T14:53:58.037Z,10.23
2018-12-13T14:56:23.967Z,9.87
2018-12-13T14:58:49.925Z,9.27
2018-12-13T15:01:15.859Z,9.27
2018-12-13T15:03:41.863Z,9.60
2018-12-13T15:06:07.753Z,35.93
2018-12-13T15:08:33.688Z,23.33
2018-12-13T15:10:59.637Z,13.57
2018-12-13T15:13:25.577Z,13.07
2018-12-13T15:15:58.608Z,20.70
2018-12-13T15:18:24.555Z,18.73
2018-12-13T15:20:50.473Z,20.40
2018-12-13T15:23:16.985Z,18.40
2018-12-13T15:25:42.903Z,14.73
2018-12-13T15:28:08.904Z,20.37
2018-12-13T15:30:34.841Z,26.67
2018-12-13T15:33:00.747Z,24.23
2018-12-13T15:35:26.717Z,18.57
2018-12-13T15:37:52.625Z,50.23
2018-12-13T15:40:18.584Z,16.70
2018-12-13T15:42:44.526Z,14.53
2018-12-13T15:45:11.216Z,15.57
2018-12-13T15:47:37.141Z,11.93
2018-12-13T15:50:04.572Z,11.37
2018-12-13T15:52:30.608Z,11.37
2018-12-13T15:54:56.565Z,11.70
2018-12-13T15:57:22.654Z,12.40
2018-12-13T15:59:49.431Z,12.13
2018-12-13T16:02:15.615Z,13.80
2018-12-13T16:04:41.608Z,19.83
2018-12-13T16:07:07.574Z,17.07
2018-12-13T16:09:33.567Z,16.30
2018-12-13T16:11:59.545Z,15.00
2018-12-13T16:14:26.083Z,15.83
2018-12-13T16:16:52.072Z,14.30
2018-12-13T16:19:18.085Z,13.07
2018-12-13T16:21:44.138Z,13.20
2018-12-13T16:24:10.225Z,14.43
2018-12-13T16:26:36.451Z,13.97
2018-12-13T16:29:02.424Z,13.13
2018-12-13T16:31:28.396Z,12.90
2018-12-13T16:33:54.403Z,13.33
2018-12-13T16:36:20.394Z,13.10
2018-12-13T16:38:46.334Z,12.57
2018-12-13T16:41:23.144Z,17.40
2018-12-13T16:43:49.464Z,26.87
2018-12-13T16:46:15.510Z,14.10
2018-12-13T16:48:41.494Z,12.00
2018-12-13T16:51:07.429Z,10.83
2018-12-13T16:53:33.440Z,13.43
2018-12-13T16:55:59.448Z,12.37
2018-12-13T16:58:26.081Z,11.83
2018-12-13T17:00:52.556Z,14.03
2018-12-13T17:03:31.916Z,14.77
2018-12-13T17:05:58.071Z,14.07
2018-12-13T17:08:24.109Z,12.60
2018-12-13T17:10:51.692Z,12.70
2018-12-13T17:13:17.760Z,13.47
2018-12-13T17:15:43.873Z,13.33
2018-12-13T17:18:09.894Z,15.00
2018-12-13T17:20:36.156Z,13.57
2018-12-13T17:23:02.189Z,15.73
2018-12-13T17:25:28.207Z,13.33
2018-12-13T17:27:54.206Z,15.20
2018-12-13T17:30:20.270Z,14.70
2018-12-13T17:32:46.943Z,16.17
2018-12-13T17:35:12.947Z,15.73
2018-12-13T17:37:38.969Z,16.17
2018-12-13T17:40:05.081Z,15.80
2018-12-13T17:42:31.647Z,28.43
2018-12-13T17:44:58.499Z,17.27
2018-12-13T17:47:24.625Z,30.43
2018-12-13T17:49:50.647Z,20.77
2018-12-13T17:52:16.881Z,26.63
2018-12-13T17:54:43.007Z,19.87
2018-12-13T17:57:09.826Z,17.53
2018-12-13T17:59:36.813Z,16.10
2018-12-13T18:02:02.881Z,15.87
2018-12-13T18:04:36.297Z,18.97
2018-12-13T18:07:02.890Z,18.73
2018-12-13T18:09:29.859Z,20.27
2018-12-13T18:11:55.970Z,18.63
2018-12-13T18:14:23.040Z,18.00
2018-12-13T18:16:49.433Z,17.67
2018-12-13T18:19:15.535Z,18.17
2018-12-13T18:21:42.997Z,18.63
2018-12-13T18:24:10.034Z,17.90
2018-12-13T18:26:37.556Z,20.03
2018-12-13T18:29:11.535Z,20.57
2018-12-13T18:31:38.620Z,17.27
2018-12-13T18:34:04.949Z,19.17
2018-12-13T18:36:31.379Z,18.53
2018-12-13T18:38:58.033Z,21.27
2018-12-13T18:41:26.360Z,18.93
2018-12-13T18:43:52.468Z,21.10
2018-12-13T18:46:18.558Z,20.27
2018-12-13T18:48:44.631Z,18.97
2018-12-13T18:51:10.926Z,20.00
2018-12-13T18:53:37.064Z,19.47
2018-12-13T18:56:06.815Z,20.03
2018-12-13T18:58:32.894Z,18.90
2018-12-13T19:00:59.487Z,19.90
2018-12-13T19:03:26.038Z,19.97
2018-12-13T19:05:53.240Z,17.67
2018-12-13T19:08:19.574Z,18.17
2018-12-13T19:10:46.830Z,29.60
2018-12-13T19:13:13.683Z,24.13
2018-12-13T19:15:42.111Z,22.97
2018-12-13T19:18:13.607Z,19.53
2018-12-13T19:20:40.092Z,27.93
2018-12-13T19:23:07.602Z,26.27
2018-12-13T19:25:33.707Z,23.90
2018-12-13T19:27:59.747Z,22.40
2018-12-13T19:30:26.837Z,22.50
2018-12-13T19:32:53.332Z,23.27
2018-12-13T19:35:21.758Z,23.03
2018-12-13T19:37:50.640Z,22.13
2018-12-13T19:40:16.947Z,24.97
2018-12-13T19:42:43.923Z,24.87
2018-12-13T19:45:10.597Z,25.90
2018-12-13T19:47:36.668Z,22.10
2018-12-13T19:50:04.487Z,22.40
2018-12-13T19:52:36.134Z,25.43
2018-12-13T19:55:03.260Z,22.87
2018-12-13T19:57:29.444Z,22.80
2018-12-13T19:59:56.446Z,23.03
2018-12-13T20:02:23.313Z,23.80
2018-12-13T20:04:50.451Z,25.40
2018-12-13T20:07:17.400Z,22.10
2018-12-13T20:09:46.510Z,25.27
2018-12-13T20:12:13.800Z,25.63
2018-12-13T20:14:41.333Z,37.40
2018-12-13T20:17:08.378Z,29.00
2018-12-13T20:19:36.727Z,30.63
2018-12-13T20:22:09.009Z,26.50
2018-12-13T20:24:35.108Z,26.07
2018-12-13T20:27:08.218Z,22.67
2018-12-13T20:29:36.436Z,24.90
2018-12-13T20:32:03.733Z,26.80
2018-12-13T20:34:29.948Z,25.97
2018-12-13T20:36:56.766Z,23.77
2018-12-13T20:39:23.164Z,22.87
2018-12-13T20:41:53.190Z,23.03
2018-12-13T20:44:19.270Z,25.53
2018-12-13T20:46:45.288Z,22.53
2018-12-13T20:49:13.508Z,22.80
2018-12-13T20:51:39.580Z,26.57
2018-12-13T20:54:06.031Z,23.67
2018-12-13T20:56:33.656Z,25.40
2018-12-13T20:59:00.824Z,23.73
2018-12-13T21:01:28.262Z,28.00
2018-12-13T21:03:55.696Z,26.67
2018-12-13T21:06:22.596Z,24.03
2018-12-13T21:08:48.579Z,25.90
2018-12-13T21:11:15.949Z,25.83
2018-12-13T21:13:43.545Z,32.43
2018-12-13T21:16:09.665Z,26.33
2018-12-13T21:18:36.730Z,26.50
2018-12-13T21:21:05.049Z,26.00
2018-12-13T21:23:31.122Z,28.67
2018-12-13T21:25:59.096Z,25.33
2018-12-13T21:28:26.156Z,24.37
2018-12-13T21:30:53.082Z,27.93
2018-12-13T21:33:19.446Z,28.70
2018-12-13T21:35:46.752Z,25.37
2018-12-13T21:38:13.014Z,23.67
2018-12-13T21:40:39.067Z,28.93
2018-12-13T21:43:06.080Z,31.73
2018-12-13T21:45:33.561Z,27.17
2018-12-13T21:48:00.568Z,28.17
2018-12-13T21:50:28.013Z,28.27
2018-12-13T21:52:54.170Z,29.97
2018-12-13T21:55:20.490Z,28.23
2018-12-13T21:57:49.837Z,28.23
2018-12-13T22:00:17.533Z,27.60
2018-12-13T22:02:43.881Z,31.33
2018-12-13T22:05:11.440Z,27.13
2018-12-13T22:07:37.535Z,25.63
2018-12-13T22:10:05.043Z,24.00
2018-12-13T22:12:31.233Z,25.90
2018-12-13T22:15:02.518Z,22.40
2018-12-13T22:17:26.394Z,24.80
2018-12-13T22:19:52.466Z,26.43
2018-12-13T22:22:18.472Z,27.00
2018-12-13T22:24:44.898Z,26.60
2018-12-13T22:27:11.010Z,26.43
2018-12-13T22:29:37.042Z,26.47
2018-12-13T22:32:03.487Z,27.87
2018-12-13T22:34:29.677Z,30.40
2018-12-13T22:36:56.045Z,25.23
2018-12-13T22:39:22.185Z,26.87
2018-12-13T22:41:48.213Z,25.57
2018-12-13T22:44:14.263Z,24.53
2018-12-13T22:46:41.201Z,24.07
2018-12-13T22:49:07.227Z,23.53
2018-12-13T22:51:33.258Z,24.60
2018-12-13T22:53:59.295Z,24.53
2018-12-13T22:56:25.290Z,26.10
2018-12-13T22:58:51.946Z,27.67
2018-12-13T23:01:17.935Z,23.27
2018-12-13T23:03:43.960Z,26.13
2018-12-13T23:06:09.900Z,26.10
2018-12-13T23:08:35.997Z,24.70
2018-12-13T23:11:02.319Z,27.03
2018-12-13T23:13:29.184Z,23.77
2018-12-13T23:15:55.409Z,28.67
2018-12-13T23:18:21.402Z,24.10
2018-12-13T23:20:47.381Z,34.70
2018-12-13T23:23:13.715Z,36.77
2018-12-13T23:25:46.609Z,29.93
2018-12-13T23:28:12.534Z,30.83
2018-12-13T23:30:38.537Z,32.97
2018-12-13T23:33:04.556Z,32.67
2018-12-13T23:35:30.541Z,27.73
2018-12-13T23:37:56.441Z,24.87
2018-12-13T23:40:22.349Z,27.03
2018-12-13T23:42:48.285Z,26.00
2018-12-13T23:45:14.185Z,25.30
2018-12-13T23:47:40.126Z,24.43
2018-12-13T23:50:06.038Z,24.73
2018-12-13T23:52:31.992Z,22.37
2018-12-13T23:54:57.888Z,25.03
2018-12-13T23:57:23.820Z,26.13
2018-12-13T23:59:49.744Z,23.67
